sensor_id;sensor_type;location;lat;lon;timestamp;temperature;humidity
12602;DHT22;30282;16.436;99.370;2023-02-03T00:00:43;20.20;99.90
12602;DHT22;30282;16.436;99.370;2023-02-03T00:03:12;20.10;99.90
12602;DHT22;30282;16.436;99.370;2023-02-03T00:05:41;20.00;99.90
12602;DHT22;30282;16.436;99.370;2023-02-03T00:08:12;20.00;99.90
12602;DHT22;30282;16.436;99.370;2023-02-03T00:10:45;20.00;99.90
12602;DHT22;30282;16.436;99.370;2023-02-03T00:13:15;19.90;99.90
12602;DHT22;30282;16.436;99.370;2023-02-03T00:15:44;20.10;99.90
12602;DHT22;30282;16.436;99.370;2023-02-03T00:18:13;20.10;99.90
12602;DHT22;30282;16.436;99.370;2023-02-03T00:20:43;20.10;99.90
12602;DHT22;30282;16.436;99.370;2023-02-03T00:23:12;20.10;99.90
12602;DHT22;30282;16.436;99.370;2023-02-03T00:25:43;20.10;99.90
12602;DHT22;30282;16.436;99.370;2023-02-03T00:28:12;20.20;99.90
12602;DHT22;30282;16.436;99.370;2023-02-03T00:30:41;20.30;99.90
12602;DHT22;30282;16.436;99.370;2023-02-03T00:33:12;20.40;99.90
12602;DHT22;30282;16.436;99.370;2023-02-03T00:35:42;20.40;99.90
12602;DHT22;30282;16.436;99.370;2023-02-03T00:38:11;20.50;99.90
12602;DHT22;30282;16.436;99.370;2023-02-03T00:40:40;20.40;99.90
12602;DHT22;30282;16.436;99.370;2023-02-03T00:43:11;20.40;99.90
12602;DHT22;30282;16.436;99.370;2023-02-03T00:45:40;20.50;99.90
12602;DHT22;30282;16.436;99.370;2023-02-03T00:48:09;20.60;99.90
12602;DHT22;30282;16.436;99.370;2023-02-03T00:50:39;20.70;99.90
12602;DHT22;30282;16.436;99.370;2023-02-03T00:53:08;20.70;99.90
12602;DHT22;30282;16.436;99.370;2023-02-03T00:55:37;20.80;99.90
12602;DHT22;30282;16.436;99.370;2023-02-03T00:58:06;20.90;99.90
12602;DHT22;30282;16.436;99.370;2023-02-03T01:00:40;20.90;99.90
12602;DHT22;30282;16.436;99.370;2023-02-03T01:03:09;21.00;99.90
12602;DHT22;30282;16.436;99.370;2023-02-03T01:05:38;21.10;99.90
12602;DHT22;30282;16.436;99.370;2023-02-03T01:08:07;21.10;99.90
12602;DHT22;30282;16.436;99.370;2023-02-03T01:10:38;21.10;99.90
12602;DHT22;30282;16.436;99.370;2023-02-03T01:13:07;21.10;99.90
12602;DHT22;30282;16.436;99.370;2023-02-03T01:15:36;21.10;99.90
12602;DHT22;30282;16.436;99.370;2023-02-03T01:18:07;21.10;99.90
12602;DHT22;30282;16.436;99.370;2023-02-03T01:20:36;21.20;99.90
12602;DHT22;30282;16.436;99.370;2023-02-03T01:23:05;21.30;99.90
12602;DHT22;30282;16.436;99.370;2023-02-03T01:25:35;21.40;99.90
12602;DHT22;30282;16.436;99.370;2023-02-03T01:28:04;21.50;99.90
12602;DHT22;30282;16.436;99.370;2023-02-03T01:30:33;21.50;99.90
12602;DHT22;30282;16.436;99.370;2023-02-03T01:33:02;21.60;99.90
12602;DHT22;30282;16.436;99.370;2023-02-03T01:35:33;21.70;99.90
12602;DHT22;30282;16.436;99.370;2023-02-03T01:38:07;21.70;99.90
12602;DHT22;30282;16.436;99.370;2023-02-03T01:40:42;21.80;99.90
12602;DHT22;30282;16.436;99.370;2023-02-03T01:45:55;22.00;99.90
12602;DHT22;30282;16.436;99.370;2023-02-03T01:48:25;22.00;99.90
12602;DHT22;30282;16.436;99.370;2023-02-03T01:50:56;22.10;99.90
12602;DHT22;30282;16.436;99.370;2023-02-03T01:53:25;22.20;99.90
12602;DHT22;30282;16.436;99.370;2023-02-03T01:55:54;22.20;99.90
12602;DHT22;30282;16.436;99.370;2023-02-03T01:58:25;22.30;99.90
12602;DHT22;30282;16.436;99.370;2023-02-03T02:00:57;22.30;99.90
12602;DHT22;30282;16.436;99.370;2023-02-03T02:03:30;22.40;99.90
12602;DHT22;30282;16.436;99.370;2023-02-03T02:06:04;22.40;99.90
12602;DHT22;30282;16.436;99.370;2023-02-03T02:08:34;22.40;99.90
12602;DHT22;30282;16.436;99.370;2023-02-03T02:11:04;22.50;99.90
12602;DHT22;30282;16.436;99.370;2023-02-03T02:13:34;22.50;99.90
12602;DHT22;30282;16.436;99.370;2023-02-03T02:16:08;22.50;99.90
12602;DHT22;30282;16.436;99.370;2023-02-03T02:18:52;22.60;99.90
12602;DHT22;30282;16.436;99.370;2023-02-03T02:21:47;22.60;99.90
12602;DHT22;30282;16.436;99.370;2023-02-03T02:27:30;22.80;99.90
12602;DHT22;30282;16.436;99.370;2023-02-03T02:30:34;22.80;99.90
12602;DHT22;30282;16.436;99.370;2023-02-03T02:33:15;22.80;99.90
12602;DHT22;30282;16.436;99.370;2023-02-03T02:35:56;22.80;99.90
12602;DHT22;30282;16.436;99.370;2023-02-03T02:38:42;22.80;99.90
12602;DHT22;30282;16.436;99.370;2023-02-03T02:41:18;22.80;99.90
12602;DHT22;30282;16.436;99.370;2023-02-03T02:43:54;22.80;99.90
12602;DHT22;30282;16.436;99.370;2023-02-03T02:46:31;22.80;99.90
12602;DHT22;30282;16.436;99.370;2023-02-03T02:49:05;22.90;99.90
12602;DHT22;30282;16.436;99.370;2023-02-03T02:51:37;22.90;99.90
12602;DHT22;30282;16.436;99.370;2023-02-03T02:54:08;23.00;99.90
12602;DHT22;30282;16.436;99.370;2023-02-03T02:56:40;23.10;99.90
12602;DHT22;30282;16.436;99.370;2023-02-03T02:59:11;23.10;99.90
12602;DHT22;30282;16.436;99.370;2023-02-03T03:01:40;23.20;99.90
12602;DHT22;30282;16.436;99.370;2023-02-03T03:04:12;23.20;99.90
12602;DHT22;30282;16.436;99.370;2023-02-03T03:06:45;23.40;99.90
12602;DHT22;30282;16.436;99.370;2023-02-03T03:09:17;23.50;99.90
12602;DHT22;30282;16.436;99.370;2023-02-03T03:11:50;23.50;99.90
12602;DHT22;30282;16.436;99.370;2023-02-03T03:14:22;23.60;99.90
12602;DHT22;30282;16.436;99.370;2023-02-03T03:16:56;23.70;99.90
12602;DHT22;30282;16.436;99.370;2023-02-03T03:19:33;23.80;99.90
12602;DHT22;30282;16.436;99.370;2023-02-03T03:22:05;24.00;99.90
12602;DHT22;30282;16.436;99.370;2023-02-03T03:24:40;24.10;99.90
12602;DHT22;30282;16.436;99.370;2023-02-03T03:27:13;24.20;99.90
12602;DHT22;30282;16.436;99.370;2023-02-03T03:29:47;24.40;99.90
12602;DHT22;30282;16.436;99.370;2023-02-03T03:32:18;24.50;99.90
12602;DHT22;30282;16.436;99.370;2023-02-03T03:34:50;24.70;99.90
12602;DHT22;30282;16.436;99.370;2023-02-03T03:37:23;24.80;99.90
12602;DHT22;30282;16.436;99.370;2023-02-03T03:39:55;24.80;99.90
12602;DHT22;30282;16.436;99.370;2023-02-03T03:42:28;24.90;99.90
12602;DHT22;30282;16.436;99.370;2023-02-03T03:45:03;24.90;99.90
12602;DHT22;30282;16.436;99.370;2023-02-03T03:47:41;25.10;99.90
12602;DHT22;30282;16.436;99.370;2023-02-03T03:50:17;25.20;99.90
12602;DHT22;30282;16.436;99.370;2023-02-03T03:52:47;25.40;99.90
12602;DHT22;30282;16.436;99.370;2023-02-03T03:55:19;25.50;99.90
12602;DHT22;30282;16.436;99.370;2023-02-03T03:57:52;25.60;99.90
12602;DHT22;30282;16.436;99.370;2023-02-03T04:00:23;25.70;99.90
12602;DHT22;30282;16.436;99.370;2023-02-03T04:02:55;25.80;99.90
12602;DHT22;30282;16.436;99.370;2023-02-03T04:05:27;25.90;99.90
12602;DHT22;30282;16.436;99.370;2023-02-03T04:07:57;25.90;99.90
12602;DHT22;30282;16.436;99.370;2023-02-03T04:10:31;26.00;99.90
12602;DHT22;30282;16.436;99.370;2023-02-03T04:13:00;26.10;99.90
12602;DHT22;30282;16.436;99.370;2023-02-03T04:15:30;26.20;99.90
12602;DHT22;30282;16.436;99.370;2023-02-03T04:17:59;26.20;99.90
12602;DHT22;30282;16.436;99.370;2023-02-03T04:20:32;26.30;99.90
12602;DHT22;30282;16.436;99.370;2023-02-03T04:23:01;26.40;99.90
12602;DHT22;30282;16.436;99.370;2023-02-03T04:25:30;26.50;99.90
12602;DHT22;30282;16.436;99.370;2023-02-03T04:27:59;26.60;99.90
12602;DHT22;30282;16.436;99.370;2023-02-03T04:30:29;26.60;99.90
12602;DHT22;30282;16.436;99.370;2023-02-03T04:32:58;26.70;99.90
12602;DHT22;30282;16.436;99.370;2023-02-03T04:35:27;26.80;99.90
12602;DHT22;30282;16.436;99.370;2023-02-03T04:37:58;26.90;99.90
12602;DHT22;30282;16.436;99.370;2023-02-03T04:40:27;27.00;99.90
12602;DHT22;30282;16.436;99.370;2023-02-03T04:42:56;27.10;99.90
12602;DHT22;30282;16.436;99.370;2023-02-03T04:45:25;27.10;99.90
12602;DHT22;30282;16.436;99.370;2023-02-03T04:47:54;27.30;99.90
12602;DHT22;30282;16.436;99.370;2023-02-03T04:50:23;27.50;99.90
12602;DHT22;30282;16.436;99.370;2023-02-03T04:52:52;27.60;99.90
12602;DHT22;30282;16.436;99.370;2023-02-03T04:55:23;27.70;99.90
12602;DHT22;30282;16.436;99.370;2023-02-03T04:57:55;27.80;99.90
12602;DHT22;30282;16.436;99.370;2023-02-03T05:00:28;27.90;99.90
12602;DHT22;30282;16.436;99.370;2023-02-03T05:02:57;28.00;99.90
12602;DHT22;30282;16.436;99.370;2023-02-03T05:05:26;28.00;99.90
12602;DHT22;30282;16.436;99.370;2023-02-03T05:07:55;28.10;99.90
12602;DHT22;30282;16.436;99.370;2023-02-03T05:10:26;28.20;99.90
12602;DHT22;30282;16.436;99.370;2023-02-03T05:12:55;28.30;99.90
12602;DHT22;30282;16.436;99.370;2023-02-03T05:15:24;28.30;99.90
12602;DHT22;30282;16.436;99.370;2023-02-03T05:17:54;28.40;99.90
12602;DHT22;30282;16.436;99.370;2023-02-03T05:20:23;28.60;99.90
12602;DHT22;30282;16.436;99.370;2023-02-03T05:22:54;28.60;99.90
12602;DHT22;30282;16.436;99.370;2023-02-03T05:25:25;28.70;99.90
12602;DHT22;30282;16.436;99.370;2023-02-03T05:27:55;28.80;99.90
12602;DHT22;30282;16.436;99.370;2023-02-03T05:30:24;28.90;99.90
12602;DHT22;30282;16.436;99.370;2023-02-03T05:32:53;29.00;99.90
12602;DHT22;30282;16.436;99.370;2023-02-03T05:35:22;29.10;99.90
12602;DHT22;30282;16.436;99.370;2023-02-03T05:37:51;29.00;99.90
12602;DHT22;30282;16.436;99.370;2023-02-03T05:40:21;29.20;99.90
12602;DHT22;30282;16.436;99.370;2023-02-03T05:43:08;29.20;99.90
12602;DHT22;30282;16.436;99.370;2023-02-03T05:45:37;29.30;99.90
12602;DHT22;30282;16.436;99.370;2023-02-03T05:48:07;29.30;99.90
12602;DHT22;30282;16.436;99.370;2023-02-03T05:50:37;29.30;99.90
12602;DHT22;30282;16.436;99.370;2023-02-03T05:53:06;29.40;99.90
12602;DHT22;30282;16.436;99.370;2023-02-03T05:55:36;29.40;99.90
12602;DHT22;30282;16.436;99.370;2023-02-03T05:58:07;29.50;99.90
12602;DHT22;30282;16.436;99.370;2023-02-03T06:00:37;29.50;99.90
12602;DHT22;30282;16.436;99.370;2023-02-03T06:03:06;29.60;99.90
12602;DHT22;30282;16.436;99.370;2023-02-03T06:05:35;29.60;99.90
12602;DHT22;30282;16.436;99.370;2023-02-03T06:08:07;29.70;99.90
12602;DHT22;30282;16.436;99.370;2023-02-03T06:10:36;29.70;99.90
12602;DHT22;30282;16.436;99.370;2023-02-03T06:13:13;29.80;99.90
12602;DHT22;30282;16.436;99.370;2023-02-03T06:15:42;29.80;99.90
12602;DHT22;30282;16.436;99.370;2023-02-03T06:18:12;29.90;99.90
12602;DHT22;30282;16.436;99.370;2023-02-03T06:20:42;30.00;99.90
12602;DHT22;30282;16.436;99.370;2023-02-03T06:23:11;30.00;99.90
12602;DHT22;30282;16.436;99.370;2023-02-03T06:25:40;30.10;99.90
12602;DHT22;30282;16.436;99.370;2023-02-03T06:28:12;30.20;99.90
12602;DHT22;30282;16.436;99.370;2023-02-03T06:30:41;30.30;99.90
12602;DHT22;30282;16.436;99.370;2023-02-03T06:33:10;30.40;99.90
12602;DHT22;30282;16.436;99.370;2023-02-03T06:35:39;30.50;99.90
12602;DHT22;30282;16.436;99.370;2023-02-03T06:38:08;30.50;99.90
12602;DHT22;30282;16.436;99.370;2023-02-03T06:40:37;30.60;99.90
12602;DHT22;30282;16.436;99.370;2023-02-03T06:43:06;30.70;99.90
12602;DHT22;30282;16.436;99.370;2023-02-03T06:45:38;30.80;99.90
12602;DHT22;30282;16.436;99.370;2023-02-03T06:48:07;30.80;99.90
12602;DHT22;30282;16.436;99.370;2023-02-03T06:50:36;30.80;99.90
12602;DHT22;30282;16.436;99.370;2023-02-03T06:53:05;30.90;99.90
12602;DHT22;30282;16.436;99.370;2023-02-03T06:55:34;30.90;99.90
12602;DHT22;30282;16.436;99.370;2023-02-03T06:58:04;31.00;99.90
12602;DHT22;30282;16.436;99.370;2023-02-03T07:00:33;30.90;99.90
12602;DHT22;30282;16.436;99.370;2023-02-03T07:03:03;30.90;99.90
12602;DHT22;30282;16.436;99.370;2023-02-03T07:05:33;30.90;99.90
12602;DHT22;30282;16.436;99.370;2023-02-03T07:08:02;31.00;99.90
12602;DHT22;30282;16.436;99.370;2023-02-03T07:10:31;31.10;99.90
12602;DHT22;30282;16.436;99.370;2023-02-03T07:13:04;31.10;99.90
12602;DHT22;30282;16.436;99.370;2023-02-03T07:15:35;31.10;99.90
12602;DHT22;30282;16.436;99.370;2023-02-03T07:18:05;31.00;99.90
12602;DHT22;30282;16.436;99.370;2023-02-03T07:20:35;31.00;99.90
12602;DHT22;30282;16.436;99.370;2023-02-03T07:23:04;31.00;99.90
12602;DHT22;30282;16.436;99.370;2023-02-03T07:25:33;31.00;99.90
12602;DHT22;30282;16.436;99.370;2023-02-03T07:28:02;31.00;99.90
12602;DHT22;30282;16.436;99.370;2023-02-03T07:30:32;31.00;99.90
12602;DHT22;30282;16.436;99.370;2023-02-03T07:33:01;31.00;99.90
12602;DHT22;30282;16.436;99.370;2023-02-03T07:35:32;31.10;99.90
12602;DHT22;30282;16.436;99.370;2023-02-03T07:38:02;31.10;99.90
12602;DHT22;30282;16.436;99.370;2023-02-03T07:40:31;31.00;99.90
12602;DHT22;30282;16.436;99.370;2023-02-03T07:43:00;31.00;99.90
12602;DHT22;30282;16.436;99.370;2023-02-03T07:45:29;31.00;99.90
12602;DHT22;30282;16.436;99.370;2023-02-03T07:47:59;31.00;99.90
12602;DHT22;30282;16.436;99.370;2023-02-03T07:50:28;31.10;99.90
12602;DHT22;30282;16.436;99.370;2023-02-03T07:53:00;31.10;99.90
12602;DHT22;30282;16.436;99.370;2023-02-03T07:55:30;31.10;99.90
12602;DHT22;30282;16.436;99.370;2023-02-03T07:58:00;31.10;99.90
12602;DHT22;30282;16.436;99.370;2023-02-03T08:00:33;31.10;99.90
12602;DHT22;30282;16.436;99.370;2023-02-03T08:03:02;31.10;99.90
12602;DHT22;30282;16.436;99.370;2023-02-03T08:05:31;31.20;99.90
12602;DHT22;30282;16.436;99.370;2023-02-03T08:08:02;31.30;99.90
12602;DHT22;30282;16.436;99.370;2023-02-03T08:10:32;31.30;99.90
12602;DHT22;30282;16.436;99.370;2023-02-03T08:13:01;31.40;99.90
12602;DHT22;30282;16.436;99.370;2023-02-03T08:15:30;31.50;99.90
12602;DHT22;30282;16.436;99.370;2023-02-03T08:18:00;31.50;99.90
12602;DHT22;30282;16.436;99.370;2023-02-03T08:20:30;31.50;99.90
12602;DHT22;30282;16.436;99.370;2023-02-03T08:22:59;31.50;99.90
12602;DHT22;30282;16.436;99.370;2023-02-03T08:25:30;31.50;99.90
12602;DHT22;30282;16.436;99.370;2023-02-03T08:27:59;31.60;99.90
12602;DHT22;30282;16.436;99.370;2023-02-03T08:30:28;31.60;99.90
12602;DHT22;30282;16.436;99.370;2023-02-03T08:32:57;31.60;99.90
12602;DHT22;30282;16.436;99.370;2023-02-03T08:35:27;31.60;99.90
12602;DHT22;30282;16.436;99.370;2023-02-03T08:37:56;31.50;99.90
12602;DHT22;30282;16.436;99.370;2023-02-03T08:40:25;31.40;99.90
12602;DHT22;30282;16.436;99.370;2023-02-03T08:42:56;31.40;99.90
12602;DHT22;30282;16.436;99.370;2023-02-03T08:45:25;31.40;99.90
12602;DHT22;30282;16.436;99.370;2023-02-03T08:47:54;31.50;99.90
12602;DHT22;30282;16.436;99.370;2023-02-03T08:50:23;31.60;99.90
12602;DHT22;30282;16.436;99.370;2023-02-03T08:52:52;31.60;99.90
12602;DHT22;30282;16.436;99.370;2023-02-03T08:55:21;31.50;99.90
12602;DHT22;30282;16.436;99.370;2023-02-03T08:57:50;31.50;99.90
12602;DHT22;30282;16.436;99.370;2023-02-03T09:00:22;31.40;99.90
12602;DHT22;30282;16.436;99.370;2023-02-03T09:02:51;31.40;99.90
12602;DHT22;30282;16.436;99.370;2023-02-03T09:05:20;31.40;99.90
12602;DHT22;30282;16.436;99.370;2023-02-03T09:07:49;31.40;99.90
12602;DHT22;30282;16.436;99.370;2023-02-03T09:10:18;31.30;99.90
12602;DHT22;30282;16.436;99.370;2023-02-03T09:12:48;31.20;99.90
12602;DHT22;30282;16.436;99.370;2023-02-03T09:15:17;31.20;99.90
12602;DHT22;30282;16.436;99.370;2023-02-03T09:17:48;31.20;99.90
12602;DHT22;30282;16.436;99.370;2023-02-03T09:20:18;31.10;99.90
12602;DHT22;30282;16.436;99.370;2023-02-03T09:22:47;31.10;99.90
12602;DHT22;30282;16.436;99.370;2023-02-03T09:25:17;31.10;99.90
12602;DHT22;30282;16.436;99.370;2023-02-03T09:27:46;31.00;99.90
12602;DHT22;30282;16.436;99.370;2023-02-03T09:30:15;31.00;99.90
12602;DHT22;30282;16.436;99.370;2023-02-03T09:32:46;31.00;99.90
12602;DHT22;30282;16.436;99.370;2023-02-03T09:35:19;31.00;99.90
12602;DHT22;30282;16.436;99.370;2023-02-03T09:37:49;30.90;99.90
12602;DHT22;30282;16.436;99.370;2023-02-03T09:40:21;30.90;99.90
12602;DHT22;30282;16.436;99.370;2023-02-03T09:43:02;30.90;99.90
12602;DHT22;30282;16.436;99.370;2023-02-03T09:45:31;30.90;99.90
12602;DHT22;30282;16.436;99.370;2023-02-03T09:48:05;30.80;99.90
12602;DHT22;30282;16.436;99.370;2023-02-03T09:50:39;30.80;99.90
12602;DHT22;30282;16.436;99.370;2023-02-03T09:53:17;30.80;99.90
12602;DHT22;30282;16.436;99.370;2023-02-03T09:55:50;30.70;99.90
12602;DHT22;30282;16.436;99.370;2023-02-03T09:58:20;30.70;99.90
12602;DHT22;30282;16.436;99.370;2023-02-03T10:00:50;30.70;99.90
12602;DHT22;30282;16.436;99.370;2023-02-03T10:03:27;30.60;99.90
12602;DHT22;30282;16.436;99.370;2023-02-03T10:06:14;30.60;99.90
12602;DHT22;30282;16.436;99.370;2023-02-03T10:08:58;30.50;99.90
12602;DHT22;30282;16.436;99.370;2023-02-03T10:11:40;30.50;99.90
12602;DHT22;30282;16.436;99.370;2023-02-03T10:14:30;30.50;99.90
12602;DHT22;30282;16.436;99.370;2023-02-03T10:17:11;30.40;99.90
12602;DHT22;30282;16.436;99.370;2023-02-03T10:19:48;30.40;99.90
12602;DHT22;30282;16.436;99.370;2023-02-03T10:22:21;30.40;99.90
12602;DHT22;30282;16.436;99.370;2023-02-03T10:24:56;30.40;99.90
12602;DHT22;30282;16.436;99.370;2023-02-03T10:27:27;30.30;99.90
12602;DHT22;30282;16.436;99.370;2023-02-03T10:30:01;30.30;99.90
12602;DHT22;30282;16.436;99.370;2023-02-03T10:35:10;30.30;99.90
12602;DHT22;30282;16.436;99.370;2023-02-03T10:37:41;30.30;99.90
12602;DHT22;30282;16.436;99.370;2023-02-03T10:40:13;30.20;99.90
12602;DHT22;30282;16.436;99.370;2023-02-03T10:42:43;30.20;99.90
12602;DHT22;30282;16.436;99.370;2023-02-03T10:45:35;30.20;99.90
12602;DHT22;30282;16.436;99.370;2023-02-03T10:48:09;30.10;99.90
12602;DHT22;30282;16.436;99.370;2023-02-03T10:50:43;30.10;99.90
12602;DHT22;30282;16.436;99.370;2023-02-03T10:53:23;30.10;99.90
12602;DHT22;30282;16.436;99.370;2023-02-03T10:56:00;30.00;99.90
12602;DHT22;30282;16.436;99.370;2023-02-03T10:58:31;30.00;99.90
12602;DHT22;30282;16.436;99.370;2023-02-03T11:01:09;29.90;99.90
12602;DHT22;30282;16.436;99.370;2023-02-03T11:03:41;29.80;99.90
12602;DHT22;30282;16.436;99.370;2023-02-03T11:06:13;29.80;99.90
12602;DHT22;30282;16.436;99.370;2023-02-03T11:08:46;29.70;99.90
12602;DHT22;30282;16.436;99.370;2023-02-03T11:11:20;29.60;99.90
12602;DHT22;30282;16.436;99.370;2023-02-03T11:13:54;29.60;99.90
12602;DHT22;30282;16.436;99.370;2023-02-03T11:16:24;29.50;99.90
12602;DHT22;30282;16.436;99.370;2023-02-03T11:18:57;29.50;99.90
12602;DHT22;30282;16.436;99.370;2023-02-03T11:21:31;29.40;99.90
12602;DHT22;30282;16.436;99.370;2023-02-03T11:24:04;29.40;99.90
12602;DHT22;30282;16.436;99.370;2023-02-03T11:26:38;29.30;99.90
12602;DHT22;30282;16.436;99.370;2023-02-03T11:29:15;29.30;99.90
12602;DHT22;30282;16.436;99.370;2023-02-03T11:31:48;29.30;99.90
12602;DHT22;30282;16.436;99.370;2023-02-03T11:34:19;29.20;99.90
12602;DHT22;30282;16.436;99.370;2023-02-03T11:36:53;29.20;99.90
12602;DHT22;30282;16.436;99.370;2023-02-03T11:39:27;29.10;99.90
12602;DHT22;30282;16.436;99.370;2023-02-03T11:42:01;29.10;99.90
12602;DHT22;30282;16.436;99.370;2023-02-03T11:44:31;29.10;99.90
12602;DHT22;30282;16.436;99.370;2023-02-03T11:47:02;29.00;99.90
12602;DHT22;30282;16.436;99.370;2023-02-03T11:52:49;28.80;99.90
12602;DHT22;30282;16.436;99.370;2023-02-03T11:55:28;28.80;99.90
12602;DHT22;30282;16.436;99.370;2023-02-03T11:58:10;28.80;99.90
12602;DHT22;30282;16.436;99.370;2023-02-03T12:00:51;28.80;99.90
12602;DHT22;30282;16.436;99.370;2023-02-03T12:06:45;28.60;99.90
12602;DHT22;30282;16.436;99.370;2023-02-03T12:09:24;28.60;99.90
12602;DHT22;30282;16.436;99.370;2023-02-03T12:12:19;28.60;99.90
12602;DHT22;30282;16.436;99.370;2023-02-03T12:14:58;28.50;99.90
12602;DHT22;30282;16.436;99.370;2023-02-03T12:17:58;28.40;99.90
12602;DHT22;30282;16.436;99.370;2023-02-03T12:20:45;28.40;99.90
12602;DHT22;30282;16.436;99.370;2023-02-03T12:23:25;28.30;99.90
12602;DHT22;30282;16.436;99.370;2023-02-03T12:26:09;28.30;99.90
12602;DHT22;30282;16.436;99.370;2023-02-03T12:28:55;28.30;99.90
12602;DHT22;30282;16.436;99.370;2023-02-03T12:31:33;28.30;99.90
12602;DHT22;30282;16.436;99.370;2023-02-03T12:34:14;28.30;99.90
12602;DHT22;30282;16.436;99.370;2023-02-03T12:36:49;28.30;99.90
12602;DHT22;30282;16.436;99.370;2023-02-03T12:39:30;28.20;99.90
12602;DHT22;30282;16.436;99.370;2023-02-03T12:42:03;28.30;99.90
12602;DHT22;30282;16.436;99.370;2023-02-03T12:44:38;28.30;99.90
12602;DHT22;30282;16.436;99.370;2023-02-03T12:47:13;28.30;99.90
12602;DHT22;30282;16.436;99.370;2023-02-03T12:49:48;28.30;99.90
12602;DHT22;30282;16.436;99.370;2023-02-03T12:52:22;28.30;99.90
12602;DHT22;30282;16.436;99.370;2023-02-03T12:55:02;28.30;99.90
12602;DHT22;30282;16.436;99.370;2023-02-03T12:57:40;28.30;99.90
12602;DHT22;30282;16.436;99.370;2023-02-03T13:00:20;28.30;99.90
12602;DHT22;30282;16.436;99.370;2023-02-03T13:03:04;28.20;99.90
12602;DHT22;30282;16.436;99.370;2023-02-03T13:05:42;28.10;99.90
12602;DHT22;30282;16.436;99.370;2023-02-03T13:08:19;28.00;99.90
12602;DHT22;30282;16.436;99.370;2023-02-03T13:11:13;28.00;99.90
12602;DHT22;30282;16.436;99.370;2023-02-03T13:13:52;28.00;99.90
12602;DHT22;30282;16.436;99.370;2023-02-03T13:16:27;27.90;99.90
12602;DHT22;30282;16.436;99.370;2023-02-03T13:19:01;27.90;99.90
12602;DHT22;30282;16.436;99.370;2023-02-03T13:21:50;27.90;99.90
12602;DHT22;30282;16.436;99.370;2023-02-03T13:24:25;27.80;99.90
12602;DHT22;30282;16.436;99.370;2023-02-03T13:27:24;27.80;99.90
12602;DHT22;30282;16.436;99.370;2023-02-03T13:30:17;27.70;99.90
12602;DHT22;30282;16.436;99.370;2023-02-03T13:35:55;27.70;99.90
12602;DHT22;30282;16.436;99.370;2023-02-03T13:38:54;27.60;99.90
12602;DHT22;30282;16.436;99.370;2023-02-03T13:41:35;27.60;99.90
12602;DHT22;30282;16.436;99.370;2023-02-03T13:44:10;27.60;99.90
12602;DHT22;30282;16.436;99.370;2023-02-03T13:46:45;27.40;99.90
12602;DHT22;30282;16.436;99.370;2023-02-03T13:49:21;27.40;99.90
12602;DHT22;30282;16.436;99.370;2023-02-03T13:51:51;27.30;99.90
12602;DHT22;30282;16.436;99.370;2023-02-03T13:54:26;27.30;99.90
12602;DHT22;30282;16.436;99.370;2023-02-03T13:56:58;27.30;99.90
12602;DHT22;30282;16.436;99.370;2023-02-03T13:59:38;27.30;99.90
12602;DHT22;30282;16.436;99.370;2023-02-03T14:05:42;27.40;99.90
12602;DHT22;30282;16.436;99.370;2023-02-03T14:08:47;27.40;99.90
12602;DHT22;30282;16.436;99.370;2023-02-03T14:11:43;27.40;99.90
12602;DHT22;30282;16.436;99.370;2023-02-03T14:14:41;27.30;99.90
12602;DHT22;30282;16.436;99.370;2023-02-03T14:20:47;27.30;99.90
12602;DHT22;30282;16.436;99.370;2023-02-03T14:23:24;27.30;99.90
12602;DHT22;30282;16.436;99.370;2023-02-03T14:25:58;27.30;99.90
12602;DHT22;30282;16.436;99.370;2023-02-03T14:28:37;27.30;99.90
12602;DHT22;30282;16.436;99.370;2023-02-03T14:31:11;27.30;99.90
12602;DHT22;30282;16.436;99.370;2023-02-03T14:33:54;27.20;99.90
12602;DHT22;30282;16.436;99.370;2023-02-03T14:36:45;27.20;99.90
12602;DHT22;30282;16.436;99.370;2023-02-03T14:40:00;27.20;99.90
12602;DHT22;30282;16.436;99.370;2023-02-03T14:45:48;27.10;99.90
12602;DHT22;30282;16.436;99.370;2023-02-03T14:48:41;27.10;99.90
12602;DHT22;30282;16.436;99.370;2023-02-03T14:51:22;27.10;99.90
12602;DHT22;30282;16.436;99.370;2023-02-03T14:54:19;27.00;99.90
12602;DHT22;30282;16.436;99.370;2023-02-03T14:57:01;27.00;99.90
12602;DHT22;30282;16.436;99.370;2023-02-03T14:59:47;26.90;99.90
12602;DHT22;30282;16.436;99.370;2023-02-03T15:02:20;26.80;99.90
12602;DHT22;30282;16.436;99.370;2023-02-03T15:04:52;26.80;99.90
12602;DHT22;30282;16.436;99.370;2023-02-03T15:07:42;26.80;99.90
12602;DHT22;30282;16.436;99.370;2023-02-03T15:10:18;26.80;99.90
12602;DHT22;30282;16.436;99.370;2023-02-03T15:12:49;26.80;99.90
12602;DHT22;30282;16.436;99.370;2023-02-03T15:15:20;26.80;99.90
12602;DHT22;30282;16.436;99.370;2023-02-03T15:17:51;26.70;99.90
12602;DHT22;30282;16.436;99.370;2023-02-03T15:20:33;26.60;99.90
12602;DHT22;30282;16.436;99.370;2023-02-03T15:23:17;26.60;99.90
12602;DHT22;30282;16.436;99.370;2023-02-03T15:25:55;26.60;99.90
12602;DHT22;30282;16.436;99.370;2023-02-03T15:28:25;26.50;99.90
12602;DHT22;30282;16.436;99.370;2023-02-03T15:30:57;26.50;99.90
12602;DHT22;30282;16.436;99.370;2023-02-03T15:33:29;26.40;99.90
12602;DHT22;30282;16.436;99.370;2023-02-03T15:36:04;26.40;99.90
12602;DHT22;30282;16.436;99.370;2023-02-03T15:38:37;26.40;99.90
12602;DHT22;30282;16.436;99.370;2023-02-03T15:41:16;26.40;99.90
12602;DHT22;30282;16.436;99.370;2023-02-03T15:43:53;26.30;99.90
12602;DHT22;30282;16.436;99.370;2023-02-03T15:46:27;26.30;99.90
12602;DHT22;30282;16.436;99.370;2023-02-03T15:49:02;26.30;99.90
12602;DHT22;30282;16.436;99.370;2023-02-03T15:51:35;26.30;99.90
12602;DHT22;30282;16.436;99.370;2023-02-03T15:54:07;26.30;99.90
12602;DHT22;30282;16.436;99.370;2023-02-03T15:56:44;26.20;99.90
12602;DHT22;30282;16.436;99.370;2023-02-03T15:59:22;26.10;99.90
12602;DHT22;30282;16.436;99.370;2023-02-03T16:01:53;26.10;99.90
12602;DHT22;30282;16.436;99.370;2023-02-03T16:04:23;26.10;99.90
12602;DHT22;30282;16.436;99.370;2023-02-03T16:06:53;26.10;99.90
12602;DHT22;30282;16.436;99.370;2023-02-03T16:09:29;26.20;99.90
12602;DHT22;30282;16.436;99.370;2023-02-03T16:12:15;26.20;99.90
12602;DHT22;30282;16.436;99.370;2023-02-03T16:14:45;26.20;99.90
12602;DHT22;30282;16.436;99.370;2023-02-03T16:17:23;26.20;99.90
12602;DHT22;30282;16.436;99.370;2023-02-03T16:20:19;26.30;99.90
12602;DHT22;30282;16.436;99.370;2023-02-03T16:23:01;26.30;99.90